createdAt,value
2018-12-17T00:00:10.490Z,1.75
2018-12-17T00:02:37.986Z,1.74
2018-12-17T00:05:05.504Z,1.75
2018-12-17T00:07:33.056Z,1.74
2018-12-17T00:10:00.910Z,1.75
2018-12-17T00:12:28.405Z,1.78
2018-12-17T00:14:55.916Z,1.78
2018-12-17T00:17:23.531Z,1.78
2018-12-17T00:19:51.021Z,1.82
2018-12-17T00:22:18.514Z,1.84
2018-12-17T00:24:46.073Z,1.86
2018-12-17T00:27:13.563Z,1.87
2018-12-17T00:29:41.096Z,1.85
2018-12-17T00:32:08.592Z,1.85
2018-12-17T00:34:36.092Z,1.87
2018-12-17T00:37:03.684Z,1.86
2018-12-17T00:39:31.190Z,1.85
2018-12-17T00:41:58.681Z,1.87
2018-12-17T00:44:26.222Z,1.86
2018-12-17T00:46:53.754Z,1.87
2018-12-17T00:49:21.261Z,1.87
2018-12-17T00:51:48.749Z,1.89
2018-12-17T00:54:16.259Z,1.88
2018-12-17T00:56:43.739Z,1.87
2018-12-17T00:59:11.269Z,1.88
2018-12-17T01:01:38.936Z,1.90
2018-12-17T01:04:06.535Z,1.92
2018-12-17T01:06:34.053Z,1.89
2018-12-17T01:09:01.568Z,1.89
2018-12-17T01:11:29.066Z,1.90
2018-12-17T01:13:56.550Z,1.91
2018-12-17T01:16:24.193Z,1.93
2018-12-17T01:18:51.679Z,1.95
2018-12-17T01:21:19.157Z,1.94
2018-12-17T01:23:46.673Z,1.93
2018-12-17T01:26:14.253Z,1.93
2018-12-17T01:28:42.058Z,1.94
2018-12-17T01:31:09.544Z,1.94
2018-12-17T01:33:37.036Z,1.96
2018-12-17T01:36:04.653Z,2.00
2018-12-17T01:38:32.174Z,2.00
2018-12-17T01:40:59.659Z,2.00
2018-12-17T01:43:27.312Z,1.98
2018-12-17T01:45:54.801Z,1.99
2018-12-17T01:48:22.286Z,1.99
2018-12-17T01:50:49.839Z,2.01
2018-12-17T01:53:17.362Z,2.02
2018-12-17T01:55:44.911Z,2.00
2018-12-17T01:58:12.396Z,2.00
2018-12-17T02:00:39.893Z,2.02
2018-12-17T02:03:07.402Z,2.04
2018-12-17T02:05:34.897Z,2.05
2018-12-17T02:08:02.526Z,2.06
2018-12-17T02:10:30.057Z,2.07
2018-12-17T02:12:57.591Z,2.09
2018-12-17T02:15:25.126Z,2.11
2018-12-17T02:17:52.607Z,2.10
2018-12-17T02:20:20.121Z,2.10
2018-12-17T02:22:47.625Z,2.13
2018-12-17T02:25:15.161Z,2.15
2018-12-17T02:27:42.896Z,2.13
2018-12-17T02:30:10.415Z,2.15
2018-12-17T02:32:37.967Z,2.15
2018-12-17T02:35:05.485Z,2.15
2018-12-17T02:37:32.992Z,2.12
2018-12-17T02:40:00.575Z,2.13
2018-12-17T02:42:28.110Z,2.15
2018-12-17T02:44:55.596Z,2.18
2018-12-17T02:47:23.074Z,2.17
2018-12-17T02:49:50.572Z,2.16
2018-12-17T02:52:18.105Z,2.20
2018-12-17T02:54:45.612Z,2.23
2018-12-17T02:57:13.117Z,2.24
2018-12-17T02:59:40.657Z,2.27
2018-12-17T03:02:08.169Z,2.27
2018-12-17T03:04:35.667Z,2.30
2018-12-17T03:07:03.283Z,2.30
2018-12-17T03:09:30.764Z,2.31
2018-12-17T03:11:58.256Z,2.33
2018-12-17T03:14:25.771Z,2.33
2018-12-17T03:16:53.259Z,2.34
2018-12-17T03:19:20.765Z,2.33
2018-12-17T03:21:48.426Z,2.34
2018-12-17T03:24:15.916Z,2.34
2018-12-17T03:26:43.443Z,2.37
2018-12-17T03:29:10.993Z,2.37
2018-12-17T03:31:38.686Z,2.38
2018-12-17T03:34:06.226Z,2.37
2018-12-17T03:36:33.747Z,2.38
2018-12-17T03:39:01.308Z,2.39
2018-12-17T03:41:28.818Z,2.42
2018-12-17T03:43:56.312Z,2.42
2018-12-17T03:46:23.817Z,2.43
2018-12-17T03:48:51.342Z,2.45
2018-12-17T03:51:18.847Z,2.46
2018-12-17T03:53:46.356Z,2.48
2018-12-17T03:56:13.866Z,2.47
2018-12-17T03:58:41.519Z,2.48
2018-12-17T04:01:09.004Z,2.48
2018-12-17T04:03:36.491Z,2.48
2018-12-17T04:06:03.997Z,2.48
2018-12-17T04:08:31.532Z,2.47
2018-12-17T04:10:59.141Z,2.47
2018-12-17T04:13:26.644Z,2.45
2018-12-17T04:15:54.168Z,2.45
2018-12-17T04:18:22.284Z,2.45
2018-12-17T04:20:49.779Z,2.45
2018-12-17T04:23:17.332Z,2.46
2018-12-17T04:25:44.944Z,2.45
2018-12-17T04:28:12.485Z,2.48
2018-12-17T04:30:39.974Z,2.47
2018-12-17T04:33:07.500Z,2.47
2018-12-17T04:35:34.981Z,2.48
2018-12-17T04:38:02.478Z,2.50
2018-12-17T04:40:29.994Z,2.53
2018-12-17T04:42:57.621Z,2.55
2018-12-17T04:45:25.142Z,2.57
2018-12-17T04:47:52.659Z,2.59
2018-12-17T04:50:20.161Z,2.60
2018-12-17T04:52:47.643Z,2.61
2018-12-17T04:55:15.178Z,2.62
2018-12-17T04:57:42.925Z,2.63
2018-12-17T05:00:10.453Z,2.65
2018-12-17T05:02:37.950Z,2.67
2018-12-17T05:05:05.465Z,2.68
2018-12-17T05:07:33.159Z,2.69
2018-12-17T05:10:00.817Z,2.69
2018-12-17T05:12:28.305Z,2.70
2018-12-17T05:14:55.788Z,2.71
2018-12-17T05:17:23.320Z,2.73
2018-12-17T05:19:50.808Z,2.73
2018-12-17T05:22:18.419Z,2.74
2018-12-17T05:24:45.904Z,2.73
2018-12-17T05:27:13.386Z,2.75
2018-12-17T05:29:40.901Z,2.75
2018-12-17T05:32:08.404Z,2.76
2018-12-17T05:34:35.895Z,2.75
2018-12-17T05:37:03.418Z,2.77
2018-12-17T05:39:30.967Z,2.78
2018-12-17T05:41:58.621Z,2.78
2018-12-17T05:44:26.105Z,2.79
2018-12-17T05:46:53.612Z,2.81
2018-12-17T05:49:21.461Z,2.81
2018-12-17T05:51:48.952Z,2.83
2018-12-17T05:54:16.445Z,2.85
2018-12-17T05:56:43.993Z,2.84
2018-12-17T05:59:11.475Z,2.85
2018-12-17T06:01:39.016Z,2.85
2018-12-17T06:04:06.499Z,2.87
2018-12-17T06:06:34.071Z,2.88
2018-12-17T06:09:02.028Z,2.89
2018-12-17T06:11:29.697Z,2.92
2018-12-17T06:13:57.372Z,2.92
2018-12-17T06:16:25.085Z,2.91
2018-12-17T06:18:52.612Z,2.92
2018-12-17T06:21:20.096Z,2.92
2018-12-17T06:23:47.629Z,2.90
2018-12-17T06:26:15.183Z,2.92
2018-12-17T06:28:42.737Z,2.92
2018-12-17T06:31:10.307Z,2.90
2018-12-17T06:33:38.061Z,2.89
2018-12-17T06:36:05.947Z,2.89
2018-12-17T06:38:33.465Z,2.91
2018-12-17T06:41:00.985Z,2.89
2018-12-17T06:43:28.489Z,2.89
2018-12-17T06:45:55.982Z,2.89
2018-12-17T06:48:23.503Z,2.88
2018-12-17T06:50:51.020Z,2.86
2018-12-17T06:53:18.509Z,2.85
2018-12-17T06:55:46.019Z,2.86
2018-12-17T06:58:13.823Z,2.88
2018-12-17T07:00:41.337Z,2.86
2018-12-17T07:03:08.830Z,2.84
2018-12-17T07:05:36.437Z,2.86
2018-12-17T07:08:03.915Z,2.83
2018-12-17T07:10:31.401Z,2.85
2018-12-17T07:12:58.915Z,2.87
2018-12-17T07:15:26.400Z,2.87
2018-12-17T07:17:53.942Z,2.87
2018-12-17T07:20:21.441Z,2.87
2018-12-17T07:22:48.932Z,2.89
2018-12-17T07:25:16.453Z,2.91
2018-12-17T07:27:44.030Z,2.93
2018-12-17T07:30:11.529Z,2.90
2018-12-17T07:32:39.022Z,2.93
2018-12-17T07:35:06.568Z,2.94
2018-12-17T07:37:34.146Z,2.96
2018-12-17T07:40:01.775Z,2.98
2018-12-17T07:42:29.280Z,2.97
2018-12-17T07:44:56.805Z,2.98
2018-12-17T07:47:24.330Z,3.02
2018-12-17T07:49:51.861Z,3.01
2018-12-17T07:52:19.357Z,3.02
2018-12-17T07:54:46.841Z,3.05
2018-12-17T07:57:14.604Z,3.06
2018-12-17T07:59:42.141Z,3.06
2018-12-17T08:02:09.658Z,3.07
2018-12-17T08:04:37.207Z,3.10
2018-12-17T08:07:04.825Z,3.11
2018-12-17T08:09:32.321Z,3.14
2018-12-17T08:11:59.822Z,3.17
2018-12-17T08:14:27.573Z,3.16
2018-12-17T08:16:55.180Z,3.18
2018-12-17T08:19:22.737Z,3.24
2018-12-17T08:21:50.356Z,3.23
2018-12-17T08:24:17.833Z,3.27
2018-12-17T08:26:45.384Z,3.26
2018-12-17T08:29:13.208Z,3.28
2018-12-17T08:31:40.736Z,3.28
2018-12-17T08:34:08.211Z,3.29
2018-12-17T08:36:35.878Z,3.32
2018-12-17T08:39:03.637Z,3.32
2018-12-17T08:41:31.158Z,3.30
2018-12-17T08:43:58.657Z,3.29
2018-12-17T08:46:26.145Z,3.33
2018-12-17T08:48:53.661Z,3.35
2018-12-17T08:51:21.143Z,3.35
2018-12-17T08:53:48.643Z,3.33
2018-12-17T08:56:16.123Z,3.31
2018-12-17T08:58:43.629Z,3.31
2018-12-17T09:01:11.148Z,3.31
2018-12-17T09:03:38.648Z,3.33
2018-12-17T09:06:06.283Z,3.35
2018-12-17T09:08:33.827Z,3.33
2018-12-17T09:11:02.509Z,3.35
2018-12-17T09:13:30.255Z,3.38
2018-12-17T09:15:57.827Z,3.39
2018-12-17T09:18:25.321Z,3.41
2018-12-17T09:20:52.807Z,3.40
2018-12-17T09:23:20.311Z,3.41
2018-12-17T09:25:47.791Z,3.46
2018-12-17T09:28:15.439Z,3.46
2018-12-17T09:30:42.935Z,3.49
2018-12-17T09:33:10.428Z,3.48
2018-12-17T09:35:37.951Z,3.49
2018-12-17T09:38:05.436Z,3.51
2018-12-17T09:40:32.919Z,3.54
2018-12-17T09:43:00.660Z,3.57
2018-12-17T09:45:28.143Z,3.58
2018-12-17T09:47:55.961Z,3.61
2018-12-17T09:50:23.445Z,3.62
2018-12-17T09:52:50.988Z,3.65
2018-12-17T09:55:18.928Z,3.65
2018-12-17T09:57:46.420Z,3.66
2018-12-17T10:00:13.896Z,3.69
2018-12-17T10:02:41.393Z,3.74
2018-12-17T10:05:08.904Z,3.73
2018-12-17T10:07:36.454Z,3.82
2018-12-17T10:10:05.057Z,3.80
2018-12-17T10:12:32.548Z,3.85
2018-12-17T10:15:00.040Z,3.87
2018-12-17T10:17:27.583Z,3.90
2018-12-17T10:19:55.107Z,3.91
2018-12-17T10:22:22.601Z,3.94
2018-12-17T10:24:50.106Z,3.96
2018-12-17T10:27:17.597Z,3.94
2018-12-17T10:29:45.208Z,3.99
2018-12-17T10:32:12.688Z,4.00
2018-12-17T10:34:40.202Z,4.01
2018-12-17T10:37:07.701Z,4.03
2018-12-17T10:39:35.189Z,4.04
2018-12-17T10:42:02.689Z,4.06
2018-12-17T10:44:30.178Z,4.09
2018-12-17T10:46:57.734Z,4.10
2018-12-17T10:49:25.233Z,4.09
2018-12-17T10:51:53.015Z,4.10
2018-12-17T10:54:20.539Z,4.13
2018-12-17T10:56:48.053Z,4.16
2018-12-17T10:59:15.561Z,4.20
2018-12-17T11:01:56.797Z,4.22
2018-12-17T11:04:24.585Z,4.24
2018-12-17T11:06:52.201Z,4.28
2018-12-17T11:09:19.685Z,4.28
2018-12-17T11:11:47.173Z,4.30
2018-12-17T11:14:14.691Z,4.32
2018-12-17T11:16:42.213Z,4.33
2018-12-17T11:19:09.737Z,4.38
2018-12-17T11:21:37.324Z,4.40
2018-12-17T11:24:04.802Z,4.42
2018-12-17T11:26:32.413Z,4.45
2018-12-17T11:28:59.928Z,4.46
2018-12-17T11:31:27.404Z,4.48
2018-12-17T11:33:54.915Z,4.51
2018-12-17T11:36:22.415Z,4.55
2018-12-17T11:38:50.281Z,4.58
2018-12-17T11:41:17.794Z,4.57
2018-12-17T11:43:45.281Z,4.58
2018-12-17T11:46:13.216Z,4.62
2018-12-17T11:48:41.227Z,4.63
2018-12-17T11:51:08.725Z,4.67
2018-12-17T11:53:36.229Z,4.69
2018-12-17T11:56:03.722Z,4.72
2018-12-17T11:58:31.338Z,4.75
2018-12-17T12:00:59.753Z,4.76
2018-12-17T12:03:27.421Z,4.79
2018-12-17T12:05:55.147Z,4.82
2018-12-17T12:08:22.870Z,4.85
2018-12-17T12:10:50.380Z,4.86
2018-12-17T12:13:17.909Z,4.92
2018-12-17T12:15:45.411Z,4.92
2018-12-17T12:18:12.966Z,4.93
2018-12-17T12:20:40.469Z,4.97
2018-12-17T12:23:07.956Z,5.02
2018-12-17T12:25:35.874Z,5.04
2018-12-17T12:28:03.392Z,5.07
2018-12-17T12:30:30.875Z,5.08
2018-12-17T12:32:58.541Z,5.14
2018-12-17T12:35:26.030Z,5.17
2018-12-17T12:37:53.512Z,5.18
2018-12-17T12:40:21.051Z,5.21
2018-12-17T12:42:51.742Z,5.26
2018-12-17T12:45:18.072Z,5.31
2018-12-17T12:47:45.620Z,5.33
2018-12-17T12:50:13.132Z,5.37
2018-12-17T12:52:40.634Z,5.39
2018-12-17T12:55:08.546Z,5.42
2018-12-17T12:57:36.028Z,5.48
2018-12-17T13:00:04.186Z,5.50
2018-12-17T13:02:32.036Z,5.56
2018-12-17T13:04:59.520Z,5.60
2018-12-17T13:07:27.121Z,5.65
2018-12-17T13:09:54.634Z,5.68
2018-12-17T13:12:22.136Z,5.72
2018-12-17T13:14:49.754Z,5.76
2018-12-17T13:17:22.786Z,5.82
2018-12-17T13:19:50.400Z,5.86
2018-12-17T13:22:18.455Z,5.88
2018-12-17T13:24:45.949Z,5.93
2018-12-17T13:27:13.471Z,5.95
2018-12-17T13:29:41.046Z,5.98
2018-12-17T13:32:08.583Z,6.03
2018-12-17T13:34:36.073Z,6.06
2018-12-17T13:37:03.926Z,6.08
2018-12-17T13:39:31.421Z,6.11
2018-12-17T13:41:58.914Z,6.13
2018-12-17T13:44:26.446Z,6.17
2018-12-17T13:46:53.934Z,6.18
2018-12-17T13:49:21.414Z,6.20
2018-12-17T13:51:54.564Z,6.16
2018-12-17T13:54:22.099Z,6.21
2018-12-17T13:56:49.627Z,6.21
2018-12-17T13:59:17.142Z,6.21
2018-12-17T14:01:51.227Z,6.22
2018-12-17T14:04:14.246Z,6.22
2018-12-17T14:06:41.760Z,6.24
2018-12-17T14:09:09.293Z,6.25
2018-12-17T14:11:37.287Z,6.27
2018-12-17T14:14:04.768Z,6.28
2018-12-17T14:16:38.225Z,6.27
2018-12-17T14:19:11.391Z,6.29
2018-12-17T14:21:44.533Z,6.29
2018-12-17T14:24:12.093Z,6.29
2018-12-17T14:26:39.582Z,6.31
2018-12-17T14:29:07.220Z,6.32
2018-12-17T14:31:34.712Z,6.31
2018-12-17T14:34:02.196Z,6.33
2018-12-17T14:36:30.171Z,6.34
2018-12-17T14:38:57.776Z,6.33
2018-12-17T14:41:25.263Z,6.38
2018-12-17T14:43:54.877Z,6.38
2018-12-17T14:46:22.367Z,6.42
2018-12-17T14:48:49.857Z,6.43
2018-12-17T14:51:17.502Z,6.45
2018-12-17T14:53:45.005Z,6.46
2018-12-17T14:56:12.875Z,6.46
2018-12-17T14:58:44.431Z,6.49
2018-12-17T15:01:09.902Z,6.48
2018-12-17T15:03:37.400Z,6.50
2018-12-17T15:06:04.909Z,6.54
2018-12-17T15:08:32.468Z,6.54
2018-12-17T15:10:59.954Z,6.56
2018-12-17T15:13:27.483Z,6.60
2018-12-17T15:15:55.031Z,6.63
2018-12-17T15:18:22.534Z,6.71
2018-12-17T15:20:50.305Z,6.72
2018-12-17T15:23:17.848Z,6.73
2018-12-17T15:25:45.333Z,6.77
2018-12-17T15:28:12.840Z,6.78
2018-12-17T15:30:40.378Z,6.78
2018-12-17T15:33:07.854Z,6.75
2018-12-17T15:35:35.358Z,6.74
2018-12-17T15:38:03.243Z,6.80
2018-12-17T15:40:30.734Z,6.82
2018-12-17T15:42:58.252Z,6.84
2018-12-17T15:45:25.760Z,6.84
2018-12-17T15:47:53.249Z,6.82
2018-12-17T15:50:21.054Z,6.82
2018-12-17T15:52:48.587Z,6.84
2018-12-17T15:55:16.064Z,6.84
2018-12-17T15:57:43.569Z,6.81
2018-12-17T16:00:11.072Z,6.83
2018-12-17T16:02:38.576Z,6.83
2018-12-17T16:05:06.056Z,6.85
2018-12-17T16:07:33.692Z,6.85
2018-12-17T16:10:01.220Z,6.86
2018-12-17T16:12:28.775Z,6.85
2018-12-17T16:14:56.280Z,6.82
2018-12-17T16:17:23.772Z,6.80
2018-12-17T16:19:51.310Z,6.81
2018-12-17T16:22:18.799Z,6.80
2018-12-17T16:24:46.343Z,6.78
2018-12-17T16:27:19.222Z,6.74
2018-12-17T16:29:43.367Z,6.78
2018-12-17T16:32:10.852Z,6.76
2018-12-17T16:34:38.331Z,6.75
2018-12-17T16:37:05.927Z,6.71
2018-12-17T16:39:33.420Z,6.73
2018-12-17T16:42:00.953Z,6.72
2018-12-17T16:44:28.478Z,6.69
2018-12-17T16:46:56.023Z,6.67
2018-12-17T16:49:23.527Z,6.64
2018-12-17T16:51:51.091Z,6.63
2018-12-17T16:54:18.577Z,6.57
2018-12-17T16:56:46.065Z,6.57
2018-12-17T16:59:13.609Z,6.58
2018-12-17T17:01:41.100Z,6.53
2018-12-17T17:04:08.600Z,6.54
2018-12-17T17:06:36.362Z,6.54
2018-12-17T17:09:05.764Z,6.53
2018-12-17T17:11:33.265Z,6.49
2018-12-17T17:14:00.779Z,6.50
2018-12-17T17:16:28.615Z,6.44
2018-12-17T17:18:56.101Z,6.47
2018-12-17T17:21:23.594Z,6.44
2018-12-17T17:23:51.193Z,6.47
2018-12-17T17:26:18.731Z,6.46
2018-12-17T17:28:46.258Z,6.46
2018-12-17T17:31:13.824Z,6.47
2018-12-17T17:33:41.489Z,6.45
2018-12-17T17:36:09.026Z,6.49
2018-12-17T17:38:36.548Z,6.50
2018-12-17T17:41:04.051Z,6.50
2018-12-17T17:43:31.550Z,6.46
2018-12-17T17:45:59.090Z,6.49
2018-12-17T17:48:26.606Z,6.48
2018-12-17T17:50:54.117Z,6.49
2018-12-17T17:53:21.652Z,6.49
2018-12-17T17:55:49.577Z,6.45
2018-12-17T17:58:17.072Z,6.40
2018-12-17T18:00:44.606Z,6.42
2018-12-17T18:03:12.132Z,6.38
2018-12-17T18:05:39.660Z,6.43
2018-12-17T18:08:07.166Z,6.41
2018-12-17T18:10:34.694Z,6.40
2018-12-17T18:13:02.342Z,6.36
2018-12-17T18:15:29.836Z,6.35
2018-12-17T18:17:57.325Z,6.35
2018-12-17T18:20:25.169Z,6.31
2018-12-17T18:22:52.650Z,6.29
2018-12-17T18:25:20.135Z,6.30
2018-12-17T18:27:47.650Z,6.28
2018-12-17T18:30:15.139Z,6.30
2018-12-17T18:32:42.641Z,6.36
2018-12-17T18:35:10.147Z,6.36
2018-12-17T18:37:37.766Z,6.40
2018-12-17T18:40:05.262Z,6.40
2018-12-17T18:42:32.765Z,6.42
2018-12-17T18:45:00.668Z,6.44
2018-12-17T18:47:28.196Z,6.47
2018-12-17T18:49:55.679Z,6.48
2018-12-17T18:52:23.561Z,6.49
2018-12-17T18:54:51.053Z,6.53
2018-12-17T18:57:18.578Z,6.52
2018-12-17T18:59:46.118Z,6.57
2018-12-17T19:02:13.620Z,6.60
2018-12-17T19:04:41.467Z,6.63
2018-12-17T19:07:08.992Z,6.63
2018-12-17T19:09:36.484Z,6.61
2018-12-17T19:12:03.994Z,6.60
2018-12-17T19:14:31.528Z,6.62
2018-12-17T19:16:59.041Z,6.63
2018-12-17T19:19:26.534Z,6.58
2018-12-17T19:21:54.176Z,6.63
2018-12-17T19:24:21.696Z,6.64
2018-12-17T19:26:49.187Z,6.63
2018-12-17T19:29:16.845Z,6.68
2018-12-17T19:31:44.338Z,6.71
2018-12-17T19:34:11.817Z,6.72
2018-12-17T19:36:39.463Z,6.71
2018-12-17T19:39:07.319Z,6.72
2018-12-17T19:41:34.814Z,6.73
2018-12-17T19:44:02.504Z,6.72
2018-12-17T19:46:30.057Z,6.69
2018-12-17T19:48:57.577Z,6.68
2018-12-17T19:51:26.045Z,6.68
2018-12-17T19:53:53.549Z,6.67
2018-12-17T19:56:21.046Z,6.68
2018-12-17T19:58:48.913Z,6.66
2018-12-17T20:01:16.422Z,6.69
2018-12-17T20:03:43.939Z,6.65
2018-12-17T20:06:11.548Z,6.68
2018-12-17T20:08:39.077Z,6.67
2018-12-17T20:11:06.565Z,6.66
2018-12-17T20:13:34.064Z,6.67
2018-12-17T20:16:01.700Z,6.65
2018-12-17T20:18:29.272Z,6.65
2018-12-17T20:20:56.817Z,6.65
2018-12-17T20:23:24.365Z,6.62
2018-12-17T20:25:52.008Z,6.60
2018-12-17T20:28:19.811Z,6.58
2018-12-17T20:30:47.436Z,6.57
2018-12-17T20:33:15.023Z,6.53
2018-12-17T20:35:42.526Z,6.53
2018-12-17T20:38:10.082Z,6.53
2018-12-17T20:40:37.756Z,6.50
2018-12-17T20:43:05.306Z,6.46
2018-12-17T20:45:32.840Z,6.45
2018-12-17T20:48:00.701Z,6.44
2018-12-17T20:50:28.340Z,6.37
2018-12-17T20:52:55.824Z,6.36
2018-12-17T20:55:23.328Z,6.37
2018-12-17T20:57:50.831Z,6.34
2018-12-17T21:00:18.327Z,6.33
2018-12-17T21:02:45.898Z,6.30
2018-12-17T21:05:13.429Z,6.24
2018-12-17T21:07:42.355Z,6.26
2018-12-17T21:10:14.165Z,6.22
2018-12-17T21:12:41.649Z,6.20
2018-12-17T21:15:09.209Z,6.15
2018-12-17T21:17:37.745Z,6.09
2018-12-17T21:20:05.412Z,6.06
2018-12-17T21:22:32.954Z,6.01
2018-12-17T21:25:00.736Z,5.99
2018-12-17T21:27:28.312Z,5.94
2018-12-17T21:29:55.824Z,5.80
2018-12-17T21:32:23.509Z,5.81
2018-12-17T21:34:51.001Z,5.74
2018-12-17T21:37:18.526Z,5.71
2018-12-17T21:39:46.029Z,5.66
2018-12-17T21:42:13.525Z,5.61
2018-12-17T21:44:41.079Z,5.58
2018-12-17T21:47:08.583Z,5.51
2018-12-17T21:49:36.090Z,5.48
2018-12-17T21:52:03.839Z,5.43
2018-12-17T21:54:31.332Z,5.44
2018-12-17T21:56:59.024Z,5.40
2018-12-17T21:59:26.523Z,5.36
2018-12-17T22:01:54.021Z,5.32
2018-12-17T22:04:21.534Z,5.28
2018-12-17T22:06:49.106Z,5.23
2018-12-17T22:09:16.638Z,5.16
2018-12-17T22:11:44.130Z,5.15
2018-12-17T22:14:11.715Z,5.12
2018-12-17T22:16:39.212Z,5.06
2018-12-17T22:19:06.738Z,5.00
2018-12-17T22:21:34.375Z,4.96
2018-12-17T22:24:01.868Z,4.92
2018-12-17T22:26:29.448Z,4.89
2018-12-17T22:28:57.054Z,4.86
2018-12-17T22:31:24.559Z,4.83
2018-12-17T22:33:52.102Z,4.77
2018-12-17T22:36:19.597Z,4.78
2018-12-17T22:38:47.124Z,4.77
2018-12-17T22:41:14.632Z,4.78
2018-12-17T22:43:42.136Z,4.80
2018-12-17T22:46:09.694Z,4.83
2018-12-17T22:48:37.203Z,4.84
2018-12-17T22:51:04.700Z,4.86
2018-12-17T22:53:32.346Z,4.85
2018-12-17T22:55:59.848Z,4.87
2018-12-17T22:58:27.348Z,4.89
2018-12-17T23:00:54.857Z,4.88
2018-12-17T23:03:26.236Z,4.89
2018-12-17T23:05:52.062Z,4.88
2018-12-17T23:08:19.786Z,4.91
2018-12-17T23:10:59.187Z,4.90
2018-12-17T23:13:38.466Z,4.88
2018-12-17T23:16:18.043Z,4.88
2018-12-17T23:18:45.099Z,4.85
2018-12-17T23:21:12.743Z,4.83
2018-12-17T23:23:40.381Z,4.84
2018-12-17T23:26:07.897Z,4.83
2018-12-17T23:28:35.491Z,4.80
2018-12-17T23:31:03.001Z,4.77
2018-12-17T23:33:32.963Z,4.78
2018-12-17T23:36:00.080Z,4.79
2018-12-17T23:38:27.698Z,4.80
2018-12-17T23:40:55.215Z,4.81
2018-12-17T23:43:22.745Z,4.82
2018-12-17T23:45:50.281Z,4.86
2018-12-17T23:48:17.806Z,4.87
2018-12-17T23:50:45.413Z,4.85
2018-12-17T23:53:13.395Z,4.89
2018-12-17T23:55:40.927Z,4.88
2018-12-17T23:58:08.505Z,4.89
